sensor_id;sensor_type;location;lat;lon;timestamp;P1;durP1;ratioP1;P2;durP2;ratioP2
39694;SDS011;25367;-35.352;149.036;2022-12-07T00:01:51;1.33;;;0.85;;
39694;SDS011;25367;-35.352;149.036;2022-12-07T00:04:20;5.25;;;1.25;;
39694;SDS011;25367;-35.352;149.036;2022-12-07T00:06:51;1.63;;;0.98;;
39694;SDS011;25367;-35.352;149.036;2022-12-07T00:09:21;2.30;;;1.00;;
39694;SDS011;25367;-35.352;149.036;2022-12-07T00:11:52;2.42;;;0.75;;
39694;SDS011;25367;-35.352;149.036;2022-12-07T00:14:21;2.97;;;0.90;;
39694;SDS011;25367;-35.352;149.036;2022-12-07T00:16:51;1.48;;;0.82;;
39694;SDS011;25367;-35.352;149.036;2022-12-07T00:19:20;2.60;;;0.85;;
39694;SDS011;25367;-35.352;149.036;2022-12-07T00:21:50;2.83;;;0.98;;
39694;SDS011;25367;-35.352;149.036;2022-12-07T00:24:19;2.83;;;0.95;;
39694;SDS011;25367;-35.352;149.036;2022-12-07T00:26:49;3.63;;;0.90;;
39694;SDS011;25367;-35.352;149.036;2022-12-07T00:29:20;1.40;;;0.73;;
39694;SDS011;25367;-35.352;149.036;2022-12-07T00:31:50;1.08;;;0.70;;
39694;SDS011;25367;-35.352;149.036;2022-12-07T00:34:19;1.33;;;0.73;;
39694;SDS011;25367;-35.352;149.036;2022-12-07T00:36:50;2.15;;;0.75;;
39694;SDS011;25367;-35.352;149.036;2022-12-07T00:39:19;1.67;;;0.68;;
39694;SDS011;25367;-35.352;149.036;2022-12-07T00:41:49;1.88;;;0.90;;
39694;SDS011;25367;-35.352;149.036;2022-12-07T00:44:20;3.60;;;0.98;;
39694;SDS011;25367;-35.352;149.036;2022-12-07T00:46:50;1.60;;;0.90;;
39694;SDS011;25367;-35.352;149.036;2022-12-07T00:49:19;3.45;;;0.82;;
39694;SDS011;25367;-35.352;149.036;2022-12-07T00:51:49;3.38;;;0.88;;
39694;SDS011;25367;-35.352;149.036;2022-12-07T00:54:18;2.55;;;1.00;;
39694;SDS011;25367;-35.352;149.036;2022-12-07T00:56:47;1.23;;;0.50;;
39694;SDS011;25367;-35.352;149.036;2022-12-07T00:59:19;2.33;;;0.85;;
39694;SDS011;25367;-35.352;149.036;2022-12-07T01:01:49;2.15;;;0.63;;
39694;SDS011;25367;-35.352;149.036;2022-12-07T01:04:18;1.65;;;0.50;;
39694;SDS011;25367;-35.352;149.036;2022-12-07T01:06:47;1.65;;;0.68;;
39694;SDS011;25367;-35.352;149.036;2022-12-07T01:09:17;2.38;;;0.90;;
39694;SDS011;25367;-35.352;149.036;2022-12-07T01:11:46;1.63;;;0.60;;
39694;SDS011;25367;-35.352;149.036;2022-12-07T01:14:16;1.63;;;0.80;;
39694;SDS011;25367;-35.352;149.036;2022-12-07T01:16:47;3.72;;;0.50;;
39694;SDS011;25367;-35.352;149.036;2022-12-07T01:19:16;0.90;;;0.35;;
39694;SDS011;25367;-35.352;149.036;2022-12-07T01:21:46;2.63;;;0.90;;
39694;SDS011;25367;-35.352;149.036;2022-12-07T01:24:15;2.45;;;0.55;;
39694;SDS011;25367;-35.352;149.036;2022-12-07T01:26:45;2.35;;;0.80;;
39694;SDS011;25367;-35.352;149.036;2022-12-07T01:29:20;1.27;;;0.50;;
39694;SDS011;25367;-35.352;149.036;2022-12-07T01:31:49;1.52;;;0.77;;
39694;SDS011;25367;-35.352;149.036;2022-12-07T01:34:18;3.63;;;0.70;;
39694;SDS011;25367;-35.352;149.036;2022-12-07T01:36:48;1.83;;;0.60;;
39694;SDS011;25367;-35.352;149.036;2022-12-07T01:39:17;2.25;;;0.65;;
39694;SDS011;25367;-35.352;149.036;2022-12-07T01:41:47;1.33;;;0.68;;
39694;SDS011;25367;-35.352;149.036;2022-12-07T01:44:19;2.25;;;0.68;;
39694;SDS011;25367;-35.352;149.036;2022-12-07T01:46:50;1.92;;;0.75;;
39694;SDS011;25367;-35.352;149.036;2022-12-07T01:49:28;2.60;;;0.73;;
39694;SDS011;25367;-35.352;149.036;2022-12-07T01:52:04;2.35;;;0.70;;
39694;SDS011;25367;-35.352;149.036;2022-12-07T01:54:40;2.35;;;0.60;;
39694;SDS011;25367;-35.352;149.036;2022-12-07T01:57:11;1.75;;;0.80;;
39694;SDS011;25367;-35.352;149.036;2022-12-07T01:59:45;1.70;;;0.60;;
39694;SDS011;25367;-35.352;149.036;2022-12-07T02:02:18;1.55;;;0.57;;
39694;SDS011;25367;-35.352;149.036;2022-12-07T02:04:50;4.03;;;0.88;;
39694;SDS011;25367;-35.352;149.036;2022-12-07T02:07:20;2.75;;;0.40;;
39694;SDS011;25367;-35.352;149.036;2022-12-07T02:09:51;3.88;;;0.77;;
39694;SDS011;25367;-35.352;149.036;2022-12-07T02:12:21;1.90;;;0.60;;
39694;SDS011;25367;-35.352;149.036;2022-12-07T02:14:55;1.48;;;0.45;;
39694;SDS011;25367;-35.352;149.036;2022-12-07T02:17:25;6.00;;;1.27;;
39694;SDS011;25367;-35.352;149.036;2022-12-07T02:20:09;11.50;;;1.60;;
39694;SDS011;25367;-35.352;149.036;2022-12-07T02:23:12;6.07;;;0.90;;
39694;SDS011;25367;-35.352;149.036;2022-12-07T02:29:20;3.80;;;1.02;;
39694;SDS011;25367;-35.352;149.036;2022-12-07T02:31:54;4.03;;;0.93;;
39694;SDS011;25367;-35.352;149.036;2022-12-07T02:34:32;11.00;;;1.38;;
39694;SDS011;25367;-35.352;149.036;2022-12-07T02:37:09;9.82;;;1.73;;
39694;SDS011;25367;-35.352;149.036;2022-12-07T02:39:47;5.28;;;0.90;;
39694;SDS011;25367;-35.352;149.036;2022-12-07T02:42:23;3.65;;;1.00;;
39694;SDS011;25367;-35.352;149.036;2022-12-07T02:44:59;7.07;;;1.20;;
39694;SDS011;25367;-35.352;149.036;2022-12-07T02:47:30;9.95;;;1.60;;
39694;SDS011;25367;-35.352;149.036;2022-12-07T02:50:02;15.40;;;1.33;;
39694;SDS011;25367;-35.352;149.036;2022-12-07T02:52:33;14.35;;;1.38;;
39694;SDS011;25367;-35.352;149.036;2022-12-07T02:55:02;7.18;;;1.10;;
39694;SDS011;25367;-35.352;149.036;2022-12-07T02:57:45;7.53;;;1.10;;
39694;SDS011;25367;-35.352;149.036;2022-12-07T03:00:23;10.15;;;1.05;;
39694;SDS011;25367;-35.352;149.036;2022-12-07T03:02:54;7.50;;;1.20;;
39694;SDS011;25367;-35.352;149.036;2022-12-07T03:05:38;5.18;;;0.90;;
39694;SDS011;25367;-35.352;149.036;2022-12-07T03:08:19;12.60;;;1.67;;
39694;SDS011;25367;-35.352;149.036;2022-12-07T03:10:57;9.15;;;1.77;;
39694;SDS011;25367;-35.352;149.036;2022-12-07T03:13:30;23.45;;;2.15;;
39694;SDS011;25367;-35.352;149.036;2022-12-07T03:16:07;33.70;;;3.47;;
39694;SDS011;25367;-35.352;149.036;2022-12-07T03:18:43;24.50;;;2.08;;
39694;SDS011;25367;-35.352;149.036;2022-12-07T03:21:17;27.20;;;2.65;;
39694;SDS011;25367;-35.352;149.036;2022-12-07T03:23:51;17.70;;;1.83;;
39694;SDS011;25367;-35.352;149.036;2022-12-07T03:26:23;25.17;;;2.47;;
39694;SDS011;25367;-35.352;149.036;2022-12-07T03:28:59;23.45;;;2.00;;
39694;SDS011;25367;-35.352;149.036;2022-12-07T03:31:36;11.90;;;2.10;;
39694;SDS011;25367;-35.352;149.036;2022-12-07T03:34:10;18.38;;;1.70;;
39694;SDS011;25367;-35.352;149.036;2022-12-07T03:36:44;9.60;;;1.73;;
39694;SDS011;25367;-35.352;149.036;2022-12-07T03:39:23;22.05;;;2.33;;
39694;SDS011;25367;-35.352;149.036;2022-12-07T03:41:56;20.70;;;2.97;;
39694;SDS011;25367;-35.352;149.036;2022-12-07T03:44:27;12.18;;;2.15;;
39694;SDS011;25367;-35.352;149.036;2022-12-07T03:46:59;11.30;;;1.83;;
39694;SDS011;25367;-35.352;149.036;2022-12-07T03:49:36;14.30;;;1.00;;
39694;SDS011;25367;-35.352;149.036;2022-12-07T03:52:11;16.38;;;2.33;;
39694;SDS011;25367;-35.352;149.036;2022-12-07T03:54:47;10.10;;;1.80;;
39694;SDS011;25367;-35.352;149.036;2022-12-07T03:57:22;10.63;;;1.83;;
39694;SDS011;25367;-35.352;149.036;2022-12-07T03:59:53;12.15;;;1.30;;
39694;SDS011;25367;-35.352;149.036;2022-12-07T04:02:28;11.52;;;1.58;;
39694;SDS011;25367;-35.352;149.036;2022-12-07T04:04:58;7.15;;;1.55;;
39694;SDS011;25367;-35.352;149.036;2022-12-07T04:07:27;7.18;;;1.70;;
39694;SDS011;25367;-35.352;149.036;2022-12-07T04:09:57;7.70;;;1.77;;
39694;SDS011;25367;-35.352;149.036;2022-12-07T04:12:26;8.02;;;1.50;;
39694;SDS011;25367;-35.352;149.036;2022-12-07T04:14:55;4.57;;;1.17;;
39694;SDS011;25367;-35.352;149.036;2022-12-07T04:17:27;11.75;;;1.48;;
39694;SDS011;25367;-35.352;149.036;2022-12-07T04:19:56;10.85;;;1.60;;
39694;SDS011;25367;-35.352;149.036;2022-12-07T04:22:26;9.25;;;1.38;;
39694;SDS011;25367;-35.352;149.036;2022-12-07T04:24:55;6.90;;;1.50;;
39694;SDS011;25367;-35.352;149.036;2022-12-07T04:27:25;6.13;;;1.02;;
39694;SDS011;25367;-35.352;149.036;2022-12-07T04:29:54;5.43;;;1.27;;
39694;SDS011;25367;-35.352;149.036;2022-12-07T04:32:24;7.03;;;1.27;;
39694;SDS011;25367;-35.352;149.036;2022-12-07T04:34:56;6.80;;;1.13;;
39694;SDS011;25367;-35.352;149.036;2022-12-07T04:37:25;5.88;;;1.00;;
39694;SDS011;25367;-35.352;149.036;2022-12-07T04:39:55;7.30;;;1.45;;
39694;SDS011;25367;-35.352;149.036;2022-12-07T04:42:24;6.70;;;1.35;;
39694;SDS011;25367;-35.352;149.036;2022-12-07T04:44:54;4.68;;;1.02;;
39694;SDS011;25367;-35.352;149.036;2022-12-07T04:47:23;5.18;;;1.30;;
39694;SDS011;25367;-35.352;149.036;2022-12-07T04:49:55;9.73;;;1.10;;
39694;SDS011;25367;-35.352;149.036;2022-12-07T04:52:24;4.20;;;0.88;;
39694;SDS011;25367;-35.352;149.036;2022-12-07T04:54:53;6.57;;;1.48;;
39694;SDS011;25367;-35.352;149.036;2022-12-07T04:57:23;5.75;;;1.13;;
39694;SDS011;25367;-35.352;149.036;2022-12-07T04:59:52;3.38;;;1.08;;
39694;SDS011;25367;-35.352;149.036;2022-12-07T05:02:22;3.88;;;1.08;;
39694;SDS011;25367;-35.352;149.036;2022-12-07T05:04:53;3.88;;;0.85;;
39694;SDS011;25367;-35.352;149.036;2022-12-07T05:07:23;6.13;;;1.13;;
39694;SDS011;25367;-35.352;149.036;2022-12-07T05:09:52;3.13;;;0.70;;
39694;SDS011;25367;-35.352;149.036;2022-12-07T05:12:21;4.72;;;0.88;;
39694;SDS011;25367;-35.352;149.036;2022-12-07T05:14:51;3.53;;;0.73;;
39694;SDS011;25367;-35.352;149.036;2022-12-07T05:17:20;4.40;;;0.70;;
39694;SDS011;25367;-35.352;149.036;2022-12-07T05:19:50;9.02;;;1.45;;
39694;SDS011;25367;-35.352;149.036;2022-12-07T05:22:21;8.15;;;1.13;;
39694;SDS011;25367;-35.352;149.036;2022-12-07T05:24:51;2.60;;;0.80;;
39694;SDS011;25367;-35.352;149.036;2022-12-07T05:27:20;2.42;;;0.57;;
39694;SDS011;25367;-35.352;149.036;2022-12-07T05:29:50;4.30;;;0.85;;
39694;SDS011;25367;-35.352;149.036;2022-12-07T05:32:19;3.17;;;0.50;;
39694;SDS011;25367;-35.352;149.036;2022-12-07T05:34:49;3.00;;;0.93;;
39694;SDS011;25367;-35.352;149.036;2022-12-07T05:37:20;2.60;;;1.05;;
39694;SDS011;25367;-35.352;149.036;2022-12-07T05:39:49;2.65;;;0.80;;
39694;SDS011;25367;-35.352;149.036;2022-12-07T05:42:19;6.47;;;0.93;;
39694;SDS011;25367;-35.352;149.036;2022-12-07T05:44:48;6.55;;;0.52;;
39694;SDS011;25367;-35.352;149.036;2022-12-07T05:47:18;2.47;;;0.60;;
39694;SDS011;25367;-35.352;149.036;2022-12-07T05:49:47;3.08;;;0.80;;
39694;SDS011;25367;-35.352;149.036;2022-12-07T05:52:17;10.38;;;1.08;;
39694;SDS011;25367;-35.352;149.036;2022-12-07T05:54:49;2.28;;;0.75;;
39694;SDS011;25367;-35.352;149.036;2022-12-07T05:57:18;3.33;;;0.60;;
39694;SDS011;25367;-35.352;149.036;2022-12-07T05:59:48;2.70;;;0.68;;
39694;SDS011;25367;-35.352;149.036;2022-12-07T06:02:17;5.00;;;0.90;;
39694;SDS011;25367;-35.352;149.036;2022-12-07T06:04:47;3.08;;;0.63;;
39694;SDS011;25367;-35.352;149.036;2022-12-07T06:07:16;2.10;;;0.68;;
39694;SDS011;25367;-35.352;149.036;2022-12-07T06:09:47;1.83;;;0.52;;
39694;SDS011;25367;-35.352;149.036;2022-12-07T06:12:17;3.97;;;0.73;;
39694;SDS011;25367;-35.352;149.036;2022-12-07T06:14:46;1.50;;;0.63;;
39694;SDS011;25367;-35.352;149.036;2022-12-07T06:17:16;2.03;;;0.73;;
39694;SDS011;25367;-35.352;149.036;2022-12-07T06:19:45;3.63;;;0.82;;
39694;SDS011;25367;-35.352;149.036;2022-12-07T06:22:15;1.95;;;0.75;;
39694;SDS011;25367;-35.352;149.036;2022-12-07T06:24:44;1.52;;;0.60;;
39694;SDS011;25367;-35.352;149.036;2022-12-07T06:27:17;4.63;;;1.00;;
39694;SDS011;25367;-35.352;149.036;2022-12-07T06:29:46;2.95;;;0.90;;
39694;SDS011;25367;-35.352;149.036;2022-12-07T06:32:15;4.20;;;0.90;;
39694;SDS011;25367;-35.352;149.036;2022-12-07T06:34:45;3.40;;;0.80;;
39694;SDS011;25367;-35.352;149.036;2022-12-07T06:37:14;3.17;;;0.98;;
39694;SDS011;25367;-35.352;149.036;2022-12-07T06:39:44;3.65;;;1.00;;
39694;SDS011;25367;-35.352;149.036;2022-12-07T06:42:15;8.15;;;0.98;;
39694;SDS011;25367;-35.352;149.036;2022-12-07T06:44:46;30.55;;;1.73;;
39694;SDS011;25367;-35.352;149.036;2022-12-07T06:47:16;8.32;;;1.42;;
39694;SDS011;25367;-35.352;149.036;2022-12-07T06:49:46;11.50;;;1.08;;
39694;SDS011;25367;-35.352;149.036;2022-12-07T06:52:16;5.43;;;1.20;;
39694;SDS011;25367;-35.352;149.036;2022-12-07T06:54:48;22.67;;;1.63;;
39694;SDS011;25367;-35.352;149.036;2022-12-07T06:57:18;11.13;;;1.30;;
39694;SDS011;25367;-35.352;149.036;2022-12-07T06:59:48;8.95;;;1.80;;
39694;SDS011;25367;-35.352;149.036;2022-12-07T07:02:17;8.57;;;1.83;;
39694;SDS011;25367;-35.352;149.036;2022-12-07T07:04:47;30.27;;;3.88;;
39694;SDS011;25367;-35.352;149.036;2022-12-07T07:07:18;47.95;;;6.90;;
39694;SDS011;25367;-35.352;149.036;2022-12-07T07:09:53;33.33;;;2.72;;
39694;SDS011;25367;-35.352;149.036;2022-12-07T07:12:23;8.00;;;1.52;;
39694;SDS011;25367;-35.352;149.036;2022-12-07T07:14:54;13.65;;;1.92;;
39694;SDS011;25367;-35.352;149.036;2022-12-07T07:17:25;13.15;;;1.70;;
39694;SDS011;25367;-35.352;149.036;2022-12-07T07:19:55;31.67;;;3.72;;
39694;SDS011;25367;-35.352;149.036;2022-12-07T07:22:24;17.58;;;1.75;;
39694;SDS011;25367;-35.352;149.036;2022-12-07T07:24:58;8.10;;;1.23;;
39694;SDS011;25367;-35.352;149.036;2022-12-07T07:27:28;23.38;;;1.33;;
39694;SDS011;25367;-35.352;149.036;2022-12-07T07:29:58;12.48;;;1.73;;
39694;SDS011;25367;-35.352;149.036;2022-12-07T07:32:28;20.42;;;2.42;;
39694;SDS011;25367;-35.352;149.036;2022-12-07T07:34:58;15.23;;;1.85;;
39694;SDS011;25367;-35.352;149.036;2022-12-07T07:37:27;20.38;;;2.10;;
39694;SDS011;25367;-35.352;149.036;2022-12-07T07:40:00;13.40;;;3.17;;
39694;SDS011;25367;-35.352;149.036;2022-12-07T07:42:30;15.90;;;2.13;;
39694;SDS011;25367;-35.352;149.036;2022-12-07T07:45:00;10.85;;;3.10;;
39694;SDS011;25367;-35.352;149.036;2022-12-07T07:47:33;15.30;;;4.82;;
39694;SDS011;25367;-35.352;149.036;2022-12-07T07:50:05;11.07;;;4.90;;
39694;SDS011;25367;-35.352;149.036;2022-12-07T07:52:38;12.77;;;4.85;;
39694;SDS011;25367;-35.352;149.036;2022-12-07T07:55:10;16.45;;;3.95;;
39694;SDS011;25367;-35.352;149.036;2022-12-07T07:57:41;10.52;;;4.82;;
39694;SDS011;25367;-35.352;149.036;2022-12-07T08:00:12;13.77;;;5.45;;
39694;SDS011;25367;-35.352;149.036;2022-12-07T08:02:42;11.80;;;5.70;;
39694;SDS011;25367;-35.352;149.036;2022-12-07T08:05:15;18.38;;;5.72;;
39694;SDS011;25367;-35.352;149.036;2022-12-07T08:07:44;23.33;;;5.80;;
39694;SDS011;25367;-35.352;149.036;2022-12-07T08:10:18;17.25;;;6.05;;
39694;SDS011;25367;-35.352;149.036;2022-12-07T08:12:50;10.52;;;5.40;;
39694;SDS011;25367;-35.352;149.036;2022-12-07T08:15:19;13.57;;;5.97;;
39694;SDS011;25367;-35.352;149.036;2022-12-07T08:17:48;14.95;;;6.38;;
39694;SDS011;25367;-35.352;149.036;2022-12-07T08:20:19;11.65;;;6.00;;
39694;SDS011;25367;-35.352;149.036;2022-12-07T08:22:49;13.13;;;5.30;;
39694;SDS011;25367;-35.352;149.036;2022-12-07T08:25:23;24.45;;;4.78;;
39694;SDS011;25367;-35.352;149.036;2022-12-07T08:27:54;15.05;;;4.82;;
39694;SDS011;25367;-35.352;149.036;2022-12-07T08:30:24;16.10;;;4.97;;
39694;SDS011;25367;-35.352;149.036;2022-12-07T08:32:54;11.00;;;3.97;;
39694;SDS011;25367;-35.352;149.036;2022-12-07T08:35:24;14.88;;;4.50;;
39694;SDS011;25367;-35.352;149.036;2022-12-07T08:37:53;11.93;;;3.83;;
39694;SDS011;25367;-35.352;149.036;2022-12-07T08:40:26;15.15;;;3.90;;
39694;SDS011;25367;-35.352;149.036;2022-12-07T08:42:56;16.98;;;3.90;;
39694;SDS011;25367;-35.352;149.036;2022-12-07T08:45:29;13.43;;;3.22;;
39694;SDS011;25367;-35.352;149.036;2022-12-07T08:47:59;15.15;;;3.38;;
39694;SDS011;25367;-35.352;149.036;2022-12-07T08:50:33;10.43;;;3.47;;
39694;SDS011;25367;-35.352;149.036;2022-12-07T08:53:05;14.27;;;3.80;;
39694;SDS011;25367;-35.352;149.036;2022-12-07T08:55:39;14.60;;;3.40;;
39694;SDS011;25367;-35.352;149.036;2022-12-07T08:58:22;15.55;;;3.22;;
39694;SDS011;25367;-35.352;149.036;2022-12-07T09:00:53;7.15;;;3.00;;
39694;SDS011;25367;-35.352;149.036;2022-12-07T09:03:24;8.93;;;2.97;;
39694;SDS011;25367;-35.352;149.036;2022-12-07T09:05:55;10.40;;;2.75;;
39694;SDS011;25367;-35.352;149.036;2022-12-07T09:08:26;9.23;;;3.17;;
39694;SDS011;25367;-35.352;149.036;2022-12-07T09:11:01;43.53;;;3.20;;
39694;SDS011;25367;-35.352;149.036;2022-12-07T09:13:31;7.55;;;2.85;;
39694;SDS011;25367;-35.352;149.036;2022-12-07T09:16:05;20.55;;;2.85;;
39694;SDS011;25367;-35.352;149.036;2022-12-07T09:18:36;11.55;;;2.58;;
39694;SDS011;25367;-35.352;149.036;2022-12-07T09:21:12;15.07;;;2.58;;
39694;SDS011;25367;-35.352;149.036;2022-12-07T09:23:50;9.45;;;2.20;;
39694;SDS011;25367;-35.352;149.036;2022-12-07T09:26:22;9.15;;;1.90;;
39694;SDS011;25367;-35.352;149.036;2022-12-07T09:28:54;6.18;;;2.05;;
39694;SDS011;25367;-35.352;149.036;2022-12-07T09:31:23;5.40;;;1.83;;
39694;SDS011;25367;-35.352;149.036;2022-12-07T09:33:54;19.70;;;2.63;;
39694;SDS011;25367;-35.352;149.036;2022-12-07T09:36:25;11.73;;;2.10;;
39694;SDS011;25367;-35.352;149.036;2022-12-07T09:38:57;12.25;;;2.10;;
39694;SDS011;25367;-35.352;149.036;2022-12-07T09:41:29;17.00;;;2.05;;
39694;SDS011;25367;-35.352;149.036;2022-12-07T09:46:33;5.80;;;1.85;;
39694;SDS011;25367;-35.352;149.036;2022-12-07T09:49:04;6.68;;;1.70;;
39694;SDS011;25367;-35.352;149.036;2022-12-07T09:51:39;12.98;;;2.13;;
39694;SDS011;25367;-35.352;149.036;2022-12-07T09:54:08;8.52;;;1.98;;
39694;SDS011;25367;-35.352;149.036;2022-12-07T09:56:44;11.18;;;1.88;;
39694;SDS011;25367;-35.352;149.036;2022-12-07T09:59:15;9.25;;;1.80;;
39694;SDS011;25367;-35.352;149.036;2022-12-07T10:01:47;17.98;;;3.28;;
39694;SDS011;25367;-35.352;149.036;2022-12-07T10:04:18;11.77;;;1.83;;
39694;SDS011;25367;-35.352;149.036;2022-12-07T10:06:48;4.63;;;1.63;;
39694;SDS011;25367;-35.352;149.036;2022-12-07T10:09:18;8.70;;;1.92;;
39694;SDS011;25367;-35.352;149.036;2022-12-07T10:12:00;8.93;;;1.80;;
39694;SDS011;25367;-35.352;149.036;2022-12-07T10:14:32;4.68;;;1.40;;
39694;SDS011;25367;-35.352;149.036;2022-12-07T10:17:05;10.85;;;1.42;;
39694;SDS011;25367;-35.352;149.036;2022-12-07T10:20:13;14.45;;;1.77;;
39694;SDS011;25367;-35.352;149.036;2022-12-07T10:22:56;5.65;;;1.70;;
39694;SDS011;25367;-35.352;149.036;2022-12-07T10:25:31;9.65;;;1.40;;
39694;SDS011;25367;-35.352;149.036;2022-12-07T10:28:09;7.72;;;1.83;;
39694;SDS011;25367;-35.352;149.036;2022-12-07T10:33:48;6.35;;;1.75;;
39694;SDS011;25367;-35.352;149.036;2022-12-07T10:36:19;5.63;;;1.20;;
39694;SDS011;25367;-35.352;149.036;2022-12-07T10:38:51;5.03;;;1.23;;
39694;SDS011;25367;-35.352;149.036;2022-12-07T10:41:25;4.75;;;1.30;;
39694;SDS011;25367;-35.352;149.036;2022-12-07T10:43:58;6.88;;;1.45;;
39694;SDS011;25367;-35.352;149.036;2022-12-07T10:49:44;4.22;;;1.45;;
39694;SDS011;25367;-35.352;149.036;2022-12-07T10:55:40;5.60;;;1.38;;
39694;SDS011;25367;-35.352;149.036;2022-12-07T10:58:32;3.22;;;1.08;;
39694;SDS011;25367;-35.352;149.036;2022-12-07T11:01:17;4.00;;;1.40;;
39694;SDS011;25367;-35.352;149.036;2022-12-07T11:04:02;3.60;;;1.02;;
39694;SDS011;25367;-35.352;149.036;2022-12-07T11:06:43;2.67;;;1.02;;
39694;SDS011;25367;-35.352;149.036;2022-12-07T11:09:26;3.67;;;1.20;;
39694;SDS011;25367;-35.352;149.036;2022-12-07T11:12:11;2.67;;;1.17;;
39694;SDS011;25367;-35.352;149.036;2022-12-07T11:17:28;6.25;;;1.40;;
39694;SDS011;25367;-35.352;149.036;2022-12-07T11:20:06;6.57;;;1.45;;
39694;SDS011;25367;-35.352;149.036;2022-12-07T11:22:51;4.70;;;1.38;;
39694;SDS011;25367;-35.352;149.036;2022-12-07T11:25:27;5.90;;;1.20;;
39694;SDS011;25367;-35.352;149.036;2022-12-07T11:28:13;15.05;;;1.42;;
39694;SDS011;25367;-35.352;149.036;2022-12-07T11:30:52;6.28;;;1.20;;
39694;SDS011;25367;-35.352;149.036;2022-12-07T11:33:33;4.95;;;0.90;;
39694;SDS011;25367;-35.352;149.036;2022-12-07T11:36:10;4.53;;;1.05;;
39694;SDS011;25367;-35.352;149.036;2022-12-07T11:38:48;4.57;;;1.17;;
39694;SDS011;25367;-35.352;149.036;2022-12-07T11:41:22;12.07;;;1.20;;
39694;SDS011;25367;-35.352;149.036;2022-12-07T11:43:57;10.38;;;1.48;;
39694;SDS011;25367;-35.352;149.036;2022-12-07T11:46:34;12.10;;;1.63;;
39694;SDS011;25367;-35.352;149.036;2022-12-07T11:49:17;14.65;;;1.40;;
39694;SDS011;25367;-35.352;149.036;2022-12-07T11:51:51;7.93;;;1.70;;
39694;SDS011;25367;-35.352;149.036;2022-12-07T11:54:28;8.15;;;1.70;;
39694;SDS011;25367;-35.352;149.036;2022-12-07T11:57:03;3.05;;;1.13;;
39694;SDS011;25367;-35.352;149.036;2022-12-07T11:59:45;8.75;;;1.55;;
39694;SDS011;25367;-35.352;149.036;2022-12-07T12:02:20;6.95;;;1.50;;
39694;SDS011;25367;-35.352;149.036;2022-12-07T12:04:58;9.68;;;1.23;;
39694;SDS011;25367;-35.352;149.036;2022-12-07T12:07:33;7.57;;;1.17;;
39694;SDS011;25367;-35.352;149.036;2022-12-07T12:10:04;4.60;;;1.20;;
39694;SDS011;25367;-35.352;149.036;2022-12-07T12:12:54;6.07;;;1.35;;
39694;SDS011;25367;-35.352;149.036;2022-12-07T12:15:38;5.10;;;1.10;;
39694;SDS011;25367;-35.352;149.036;2022-12-07T12:21:16;6.90;;;2.00;;
39694;SDS011;25367;-35.352;149.036;2022-12-07T12:23:48;3.90;;;1.05;;
39694;SDS011;25367;-35.352;149.036;2022-12-07T12:26:23;4.10;;;1.20;;
39694;SDS011;25367;-35.352;149.036;2022-12-07T12:28:55;9.07;;;1.45;;
39694;SDS011;25367;-35.352;149.036;2022-12-07T12:31:31;7.78;;;1.25;;
39694;SDS011;25367;-35.352;149.036;2022-12-07T12:37:02;3.85;;;1.20;;
39694;SDS011;25367;-35.352;149.036;2022-12-07T12:49:30;6.68;;;1.25;;
39694;SDS011;25367;-35.352;149.036;2022-12-07T12:55:17;7.13;;;1.83;;
39694;SDS011;25367;-35.352;149.036;2022-12-07T13:03:54;5.95;;;1.65;;
39694;SDS011;25367;-35.352;149.036;2022-12-07T13:06:34;5.78;;;1.15;;
39694;SDS011;25367;-35.352;149.036;2022-12-07T13:09:04;6.10;;;1.38;;
39694;SDS011;25367;-35.352;149.036;2022-12-07T13:11:47;4.35;;;1.20;;
39694;SDS011;25367;-35.352;149.036;2022-12-07T13:14:39;3.85;;;1.20;;
39694;SDS011;25367;-35.352;149.036;2022-12-07T13:20:49;5.85;;;1.10;;
39694;SDS011;25367;-35.352;149.036;2022-12-07T13:23:27;2.92;;;1.10;;
39694;SDS011;25367;-35.352;149.036;2022-12-07T13:26:04;2.50;;;1.20;;
39694;SDS011;25367;-35.352;149.036;2022-12-07T13:28:47;4.95;;;1.20;;
39694;SDS011;25367;-35.352;149.036;2022-12-07T13:31:30;3.72;;;1.17;;
39694;SDS011;25367;-35.352;149.036;2022-12-07T13:34:02;5.88;;;1.25;;
39694;SDS011;25367;-35.352;149.036;2022-12-07T13:36:33;5.88;;;1.27;;
39694;SDS011;25367;-35.352;149.036;2022-12-07T13:39:15;5.70;;;1.40;;
39694;SDS011;25367;-35.352;149.036;2022-12-07T13:41:49;3.55;;;1.30;;
39694;SDS011;25367;-35.352;149.036;2022-12-07T13:44:21;3.63;;;1.23;;
39694;SDS011;25367;-35.352;149.036;2022-12-07T13:46:59;3.13;;;1.10;;
39694;SDS011;25367;-35.352;149.036;2022-12-07T13:49:37;3.80;;;1.23;;
39694;SDS011;25367;-35.352;149.036;2022-12-07T13:52:14;4.45;;;1.42;;
39694;SDS011;25367;-35.352;149.036;2022-12-07T13:54:45;4.43;;;1.08;;
39694;SDS011;25367;-35.352;149.036;2022-12-07T13:57:15;4.05;;;1.02;;
39694;SDS011;25367;-35.352;149.036;2022-12-07T13:59:47;4.22;;;1.40;;
39694;SDS011;25367;-35.352;149.036;2022-12-07T14:02:18;2.80;;;1.15;;
39694;SDS011;25367;-35.352;149.036;2022-12-07T14:04:48;3.55;;;1.33;;
39694;SDS011;25367;-35.352;149.036;2022-12-07T14:07:20;2.00;;;0.90;;
39694;SDS011;25367;-35.352;149.036;2022-12-07T14:12:24;4.13;;;1.45;;
39694;SDS011;25367;-35.352;149.036;2022-12-07T14:14:58;2.88;;;1.15;;
39694;SDS011;25367;-35.352;149.036;2022-12-07T14:19:56;6.53;;;1.42;;
39694;SDS011;25367;-35.352;149.036;2022-12-07T14:22:30;3.70;;;1.08;;
39694;SDS011;25367;-35.352;149.036;2022-12-07T14:27:55;3.30;;;1.00;;
39694;SDS011;25367;-35.352;149.036;2022-12-07T14:30:28;2.90;;;0.90;;
39694;SDS011;25367;-35.352;149.036;2022-12-07T14:32:59;4.50;;;1.40;;
39694;SDS011;25367;-35.352;149.036;2022-12-07T14:35:30;2.67;;;0.90;;
39694;SDS011;25367;-35.352;149.036;2022-12-07T14:38:00;6.28;;;1.35;;
39694;SDS011;25367;-35.352;149.036;2022-12-07T14:40:29;3.38;;;1.02;;
39694;SDS011;25367;-35.352;149.036;2022-12-07T14:43:01;3.85;;;0.93;;
39694;SDS011;25367;-35.352;149.036;2022-12-07T14:45:33;3.28;;;0.98;;
39694;SDS011;25367;-35.352;149.036;2022-12-07T14:48:03;3.42;;;1.15;;
39694;SDS011;25367;-35.352;149.036;2022-12-07T14:50:33;3.95;;;1.02;;
39694;SDS011;25367;-35.352;149.036;2022-12-07T14:53:06;3.50;;;1.10;;
39694;SDS011;25367;-35.352;149.036;2022-12-07T14:55:40;2.10;;;0.82;;
39694;SDS011;25367;-35.352;149.036;2022-12-07T14:58:11;4.28;;;0.82;;
39694;SDS011;25367;-35.352;149.036;2022-12-07T15:00:46;2.17;;;0.95;;
39694;SDS011;25367;-35.352;149.036;2022-12-07T15:03:16;3.20;;;0.70;;
39694;SDS011;25367;-35.352;149.036;2022-12-07T15:05:46;5.70;;;1.10;;
39694;SDS011;25367;-35.352;149.036;2022-12-07T15:08:15;1.50;;;0.68;;
39694;SDS011;25367;-35.352;149.036;2022-12-07T15:10:45;2.35;;;0.90;;
39694;SDS011;25367;-35.352;149.036;2022-12-07T15:13:14;2.50;;;0.82;;
39694;SDS011;25367;-35.352;149.036;2022-12-07T15:15:47;1.25;;;0.57;;
39694;SDS011;25367;-35.352;149.036;2022-12-07T15:18:18;3.08;;;0.90;;
39694;SDS011;25367;-35.352;149.036;2022-12-07T15:20:48;2.92;;;0.98;;
39694;SDS011;25367;-35.352;149.036;2022-12-07T15:23:18;3.55;;;0.93;;
39694;SDS011;25367;-35.352;149.036;2022-12-07T15:25:47;2.25;;;1.00;;
39694;SDS011;25367;-35.352;149.036;2022-12-07T15:28:17;2.50;;;0.90;;
39694;SDS011;25367;-35.352;149.036;2022-12-07T15:30:50;3.03;;;0.88;;
39694;SDS011;25367;-35.352;149.036;2022-12-07T15:33:20;2.35;;;1.00;;